Rifle, CO

1:24 PM MDT en Mayo 27, 2017 (GMT -0600)
Cactus Valley, Greg and Nella | | Change Station
Aviso en curso: Flood Advisory Aviso activo: Flood Advisory

Alt 5449 ft 39.55 °N, 107.73 °W | Updated 7 minutes ago

Overcast
Nublado
57.1 ° F
Sensación térmica 57.1 ° F
N
6.0
Viento Variable Viento desde SO
Gusts 10.0 mph

Hoy
Alta -- | Baja -- ° F
--% Posibilidad de precipitaciones
Ayer
Alta -- | Baja -- ° F
Precip. -- pul
Presión 30.00 pul
Visibilidad 10.0 Millas
Nubes Muy nublado 7000 ft
Muy nublado 8500 ft
Nublado 10000 ft
Punto de rocío 40 ° F
Humedad 53%
Precipitaciones 0.00 pul
Espesor de la nieve No disponible.
5:48 AM 8:29 PM
Creciente, 6% visible
METAR KRIL 271753Z AUTO 29012G18KT 10SM BKN070 BKN085 OVC100 16/00 A3015 RMK AO2 SLP159 60000 T01560000 10172 20100 53007
Presión 30.00 pul
Visibilidad 10.0 Millas
Nubes Muy nublado 7000 ft
Muy nublado 8500 ft
Nublado 10000 ft
Punto de rocío 40 ° F
Humedad 53%
Precipitaciones 0.00 pul
Espesor de la nieve No disponible.
5:48 AM 8:29 PM
Creciente, 6% visible
METAR KRIL 271753Z AUTO 29012G18KT 10SM BKN070 BKN085 OVC100 16/00 A3015 RMK AO2 SLP159 60000 T01560000 10172 20100 53007

Get Your Daily Forecast Email!

Thanks for signing up!

Be on the lookout for a verification email in your inbox.

You'll start receiving severe weather alerts in your inbox..

×

10-Day Weather Forecast

Almanac

Astronomía

May. 27, 2017 Salida Puesta
Hora real
Crepúsculo civil
Crepúsculo náutico
Crepúsculo astronómico
Luna
Horas de luz
Horas de luz
Tomorrow will be .
, % of the Moon is Illuminated

Extremos de hoy

Máximos del estado Bajos del estado

Community

WunderPhotos

Category 6

Welcome to Category 6. This is the collective home for Weather Underground's featured writeups by Dr. Jeff Masters (right), Bob Henson (left), Chris Burt, and other regular contributors.

Nearby

Calidad del aire

  Calidad del aire Índice AQ Contaminante
Not available.

Grosos de nieve

Estación Profundido Altura

Actividad de terremotos

Ciudad Distance Mag. Tiempo y dato
Magnitud mínima muestra es 2,5.

Temperaturas de aguas costeras

Lugar Temperatura

Stations

Estaciones meteorológicas cercanas

Ubicación de la estación Temp. Vientos helados Punto de rocío Humedad Viento Precip. Alt Actualizado Tipo
                   

Watches & Warnings

Flood Advisory
Issued: 10:16 AM MDT May. 27, 2017 – National Weather Service

The flood advisory continues for
the Gunnison river above Grand Junction
* until Monday evening.
* At 08 am Saturday the stage was 11.3 feet.
* Bankfull stage is 8.6 feet.
* Flood stage is 13.0 feet.
* Forecast... the river will continue to fall.



               Fld observed forecast 6 a.M.
Location stg stg day time sun Mon Tue

Gunnison river
grand junc 13.0 11.3 Sat 08 am 10.8 10.6 9.6


Lat... Lon 3878 10825 3870 10825 3903 10862 3906 10859
      3899 10842